Time;durP1;ratioP1;P1;durP2;ratioP2;P2;SDS_P1;SDS_P2;PMS_P1;PMS_P2;Temp;Humidity;BMP_temperature;BMP_pressure;BME280_temperature;BME280_humidity;BME280_pressure;Samples;Min_cycle;Max_cycle;Signal;HPM_P1;HPM_P2
2022/03/21 00:01:23;;;;;;;49.80;33.28;;;6.80;99.90;;;;;;5112387;28;20083;-64
2022/03/21 00:03:49;;;;;;;45.63;31.38;;;6.80;99.90;;;;;;5112880;28;20126;-64
2022/03/21 00:06:15;;;;;;;50.47;33.00;;;6.80;99.90;;;;;;5094141;28;20078;-64
2022/03/21 00:08:43;;;;;;;44.50;29.30;;;6.80;99.90;;;;;;5094533;28;20422;-65
2022/03/21 00:11:10;;;;;;;43.53;28.60;;;6.80;99.90;;;;;;5112054;28;20345;-65
2022/03/21 00:13:36;;;;;;;43.35;30.40;;;6.90;99.90;;;;;;5094347;28;20431;-64
2022/03/21 00:16:04;;;;;;;47.95;29.42;;;6.90;99.90;;;;;;5094350;28;20046;-65
2022/03/21 00:18:30;;;;;;;42.58;29.48;;;6.90;99.90;;;;;;5093168;28;20132;-65
2022/03/21 00:20:55;;;;;;;42.55;29.83;;;6.90;99.90;;;;;;5112428;28;20091;-65
2022/03/21 00:23:23;;;;;;;38.33;27.10;;;6.90;99.90;;;;;;5111931;28;20047;-65
2022/03/21 00:25:50;;;;;;;37.88;27.13;;;6.90;99.90;;;;;;5077670;28;20062;-64
2022/03/21 00:28:17;;;;;;;36.38;25.65;;;6.90;99.90;;;;;;5111937;28;20088;-64
2022/03/21 00:30:44;;;;;;;42.95;28.10;;;6.90;99.90;;;;;;5112218;28;20123;-64
2022/03/21 00:33:11;;;;;;;39.85;23.45;;;6.90;99.90;;;;;;5111628;28;20043;-65
2022/03/21 00:35:37;;;;;;;43.83;26.77;;;6.90;99.90;;;;;;5112293;28;20500;-65
2022/03/21 00:38:04;;;;;;;39.67;26.25;;;6.90;99.90;;;;;;5094051;28;20043;-65
2022/03/21 00:40:30;;;;;;;39.63;26.33;;;6.90;99.90;;;;;;5111600;28;20123;-65
2022/03/21 00:42:56;;;;;;;38.63;26.38;;;6.90;99.90;;;;;;5111927;28;20126;-65
2022/03/21 00:45:26;;;;;;;41.85;26.83;;;6.90;99.90;;;;;;5111663;28;20108;-66
2022/03/21 00:47:53;;;;;;;37.08;25.38;;;6.80;99.90;;;;;;5112014;28;20055;-64
2022/03/21 00:50:22;;;;;;;39.60;25.10;;;6.80;99.90;;;;;;5111548;28;20043;-65
2022/03/21 00:52:51;;;;;;;35.85;24.70;;;6.80;99.90;;;;;;5111854;28;20048;-64
2022/03/21 00:55:18;;;;;;;38.42;25.35;;;6.80;99.90;;;;;;5093469;28;20044;-65
2022/03/21 00:57:45;;;;;;;34.78;21.40;;;6.80;99.90;;;;;;5111598;28;20046;-64
2022/03/21 01:00:24;;;;;;;39.88;24.55;;;6.80;99.90;;;;;;5111265;28;20537;-68
2022/03/21 01:02:49;;;;;;;34.05;22.23;;;6.80;99.90;;;;;;5111320;28;20735;-65
2022/03/21 01:05:15;;;;;;;33.55;22.98;;;6.70;99.90;;;;;;5111493;28;20118;-65
2022/03/21 01:07:41;;;;;;;33.72;23.48;;;6.70;99.90;;;;;;5111740;28;20046;-65
2022/03/21 01:10:10;;;;;;;30.15;21.67;;;6.70;99.90;;;;;;5111886;28;20047;-65
2022/03/21 01:12:35;;;;;;;31.30;21.80;;;6.70;99.90;;;;;;5111337;28;20048;-65
2022/03/21 01:15:04;;;;;;;33.90;20.90;;;6.80;99.90;;;;;;5111724;28;20048;-65
2022/03/21 01:17:30;;;;;;;33.08;19.05;;;6.70;99.90;;;;;;5093223;28;20051;-65
2022/03/21 01:19:55;;;;;;;31.95;22.10;;;6.70;99.90;;;;;;5076826;28;20040;-64
2022/03/21 01:22:21;;;;;;;30.90;19.25;;;6.70;99.90;;;;;;5111374;28;20044;-66
2022/03/21 01:24:47;;;;;;;28.08;19.17;;;6.70;99.90;;;;;;5111746;28;20048;-65
2022/03/21 01:27:13;;;;;;;26.77;18.15;;;6.70;99.90;;;;;;5111658;28;20040;-69
2022/03/21 01:29:38;;;;;;;28.85;19.23;;;6.70;99.90;;;;;;5076805;28;20048;-67
2022/03/21 01:32:04;;;;;;;27.90;18.27;;;6.70;99.90;;;;;;5111703;28;20039;-65
2022/03/21 01:34:30;;;;;;;27.38;19.10;;;6.60;99.90;;;;;;5111249;28;20036;-65
2022/03/21 01:36:56;;;;;;;30.77;18.63;;;6.70;99.90;;;;;;5076531;28;20042;-65
2022/03/21 01:39:22;;;;;;;28.60;17.98;;;6.60;99.90;;;;;;5111071;28;20043;-65
2022/03/21 01:41:48;;;;;;;29.05;19.15;;;6.60;99.90;;;;;;5111598;28;20046;-65
2022/03/21 01:44:14;;;;;;;30.00;17.83;;;6.60;99.90;;;;;;5111665;28;20047;-64
2022/03/21 01:46:41;;;;;;;31.98;18.10;;;6.60;99.90;;;;;;5092934;28;20131;-65
2022/03/21 01:49:08;;;;;;;27.95;16.63;;;6.60;99.90;;;;;;5111546;28;20408;-65
2022/03/21 01:51:36;;;;;;;24.05;14.25;;;6.60;99.90;;;;;;5111048;28;20048;-65
2022/03/21 01:56:48;;;;;;;21.02;14.32;;;6.50;99.90;;;;;;5111604;28;20114;-65
2022/03/21 01:59:15;;;;;;;27.38;17.45;;;6.50;99.90;;;;;;5093093;28;20160;-65
2022/03/21 02:01:42;;;;;;;24.02;16.42;;;6.50;99.90;;;;;;5111013;28;20397;-65
2022/03/21 02:04:09;;;;;;;23.33;15.38;;;6.40;99.90;;;;;;5110765;28;20501;-65
2022/03/21 02:06:34;;;;;;;26.63;16.27;;;6.40;99.90;;;;;;5110885;28;20057;-66
2022/03/21 02:09:03;;;;;;;25.20;17.30;;;6.40;99.90;;;;;;5113276;28;20329;-64
2022/03/21 02:11:30;;;;;;;23.70;13.20;;;6.30;99.90;;;;;;5114589;28;20048;-64
2022/03/21 02:14:00;;;;;;;24.30;17.02;;;6.30;99.90;;;;;;5097085;28;20050;-65
2022/03/21 02:16:27;;;;;;;28.38;17.10;;;6.20;99.90;;;;;;5114517;28;20386;-64
2022/03/21 02:18:54;;;;;;;26.85;15.25;;;6.20;99.90;;;;;;5096387;28;20051;-65
2022/03/21 02:21:37;;;;;;;25.77;17.73;;;6.20;99.90;;;;;;5114451;28;20054;-68
2022/03/21 02:24:09;;;;;;;25.50;15.93;;;6.20;99.90;;;;;;5114874;28;20043;-65
2022/03/21 02:26:36;;;;;;;25.52;16.55;;;6.10;99.90;;;;;;5114337;28;20066;-66
2022/03/21 02:29:03;;;;;;;26.65;16.90;;;6.10;99.90;;;;;;5096466;28;20043;-64
2022/03/21 02:31:33;;;;;;;26.30;17.63;;;6.00;99.90;;;;;;5114164;28;20126;-65
2022/03/21 02:34:00;;;;;;;27.98;17.55;;;6.00;99.90;;;;;;5114479;28;20135;-65
2022/03/21 02:36:27;;;;;;;28.42;17.85;;;6.00;99.90;;;;;;5113573;28;20574;-65
2022/03/21 02:38:56;;;;;;;28.73;18.08;;;6.00;99.90;;;;;;5096059;28;20118;-65
2022/03/21 02:41:22;;;;;;;28.48;18.55;;;5.90;99.90;;;;;;5114323;28;20039;-69
2022/03/21 02:43:54;;;;;;;30.23;17.23;;;5.90;99.90;;;;;;5113634;28;20048;-65
2022/03/21 02:46:20;;;;;;;26.10;16.95;;;5.80;99.90;;;;;;5114239;28;20048;-66
2022/03/21 02:48:46;;;;;;;27.05;16.75;;;5.80;99.90;;;;;;5095516;28;20043;-64
2022/03/21 02:51:13;;;;;;;24.58;15.23;;;5.70;99.90;;;;;;5114334;28;20127;-64
2022/03/21 02:53:40;;;;;;;29.63;15.65;;;5.70;99.90;;;;;;5095505;28;20062;-64
2022/03/21 02:56:06;;;;;;;25.95;16.67;;;5.70;99.90;;;;;;5114088;28;20058;-64
2022/03/21 02:58:31;;;;;;;24.90;16.42;;;5.60;99.90;;;;;;5113589;28;20435;-64
2022/03/21 03:01:10;;;;;;;26.40;16.63;;;5.60;99.90;;;;;;5113834;28;20118;-65
2022/03/21 03:03:36;;;;;;;28.42;16.80;;;5.60;99.90;;;;;;5113603;28;20055;-65
2022/03/21 03:06:03;;;;;;;27.90;16.75;;;5.60;99.90;;;;;;5095932;28;20050;-66
2022/03/21 03:08:29;;;;;;;24.30;14.90;;;5.60;99.90;;;;;;5113132;28;20054;-69
2022/03/21 03:10:55;;;;;;;27.45;17.40;;;5.60;99.90;;;;;;5113881;28;20050;-64
2022/03/21 03:13:21;;;;;;;22.80;15.65;;;5.60;99.90;;;;;;5095545;28;20477;-65
2022/03/21 03:15:50;;;;;;;25.02;16.80;;;5.50;99.90;;;;;;5095396;28;20473;-64
2022/03/21 03:18:15;;;;;;;24.50;16.70;;;5.60;99.90;;;;;;5113730;28;20040;-65
2022/03/21 03:20:52;;;;;;;27.55;16.88;;;5.50;99.90;;;;;;5112565;28;20039;-64
2022/03/21 03:23:32;;;;;;;28.73;18.15;;;5.50;99.90;;;;;;5095386;28;20510;-65
2022/03/21 03:26:00;;;;;;;27.15;17.73;;;5.50;99.90;;;;;;5113496;28;20397;-64
2022/03/21 03:28:27;;;;;;;23.90;16.15;;;5.50;99.90;;;;;;5113359;28;20047;-65
2022/03/21 03:30:54;;;;;;;25.30;17.45;;;5.40;99.90;;;;;;5112831;28;20047;-65
2022/03/21 03:33:21;;;;;;;25.00;16.35;;;5.40;99.90;;;;;;5113508;28;20114;-63
2022/03/21 03:35:48;;;;;;;24.15;16.17;;;5.40;99.90;;;;;;5095082;28;20094;-65
2022/03/21 03:38:15;;;;;;;24.73;15.27;;;5.40;99.90;;;;;;5113085;28;20039;-63
2022/03/21 03:40:40;;;;;;;23.13;14.90;;;5.40;99.90;;;;;;5112769;28;20134;-64
2022/03/21 03:43:07;;;;;;;27.65;15.35;;;5.40;99.90;;;;;;5113173;28;20127;-63
2022/03/21 03:45:33;;;;;;;23.02;13.75;;;5.40;99.90;;;;;;5078089;28;20052;-67
2022/03/21 03:47:58;;;;;;;23.98;14.40;;;5.30;99.90;;;;;;5094556;28;20097;-64
2022/03/21 03:50:24;;;;;;;24.75;13.85;;;5.40;99.90;;;;;;5095225;28;20181;-65
2022/03/21 03:52:50;;;;;;;25.13;15.27;;;5.40;99.90;;;;;;5094521;28;20054;-64
2022/03/21 03:55:19;;;;;;;26.00;15.32;;;5.40;99.90;;;;;;5095186;28;20048;-65
2022/03/21 03:57:46;;;;;;;22.58;13.32;;;5.40;99.90;;;;;;5112751;28;20147;-65
2022/03/21 04:00:15;;;;;;;23.02;14.35;;;5.40;99.90;;;;;;5112781;28;20063;-64
2022/03/21 04:05:26;;;;;;;23.30;14.07;;;5.50;99.90;;;;;;5113001;28;20052;-65
2022/03/21 04:07:52;;;;;;;23.60;13.68;;;5.40;99.90;;;;;;5112424;28;20409;-65
2022/03/21 04:10:21;;;;;;;24.73;14.98;;;5.50;99.90;;;;;;5112639;28;20044;-65
2022/03/21 04:12:48;;;;;;;20.90;12.38;;;5.40;99.90;;;;;;5112179;28;20047;-65
2022/03/21 04:15:14;;;;;;;24.27;15.02;;;5.30;99.90;;;;;;5112574;28;20100;-64
2022/03/21 04:17:40;;;;;;;26.30;14.90;;;5.30;99.90;;;;;;5077425;28;20049;-65
2022/03/21 04:20:07;;;;;;;23.45;13.38;;;5.30;99.90;;;;;;5112265;28;20051;-64
2022/03/21 04:22:34;;;;;;;21.13;13.60;;;5.30;99.90;;;;;;5112947;28;20058;-64
2022/03/21 04:25:01;;;;;;;22.52;14.38;;;5.20;99.90;;;;;;5112232;28;20075;-65
2022/03/21 04:27:26;;;;;;;24.13;15.55;;;5.30;99.90;;;;;;5112376;28;20089;-65
2022/03/21 04:29:52;;;;;;;25.73;15.57;;;5.20;99.90;;;;;;5094064;28;20043;-66
2022/03/21 04:32:18;;;;;;;28.15;15.27;;;5.20;99.90;;;;;;5093721;28;20046;-64
2022/03/21 04:34:44;;;;;;;23.52;14.93;;;5.10;99.90;;;;;;5112066;28;20123;-63
2022/03/21 04:37:10;;;;;;;21.35;14.35;;;5.10;99.90;;;;;;5112331;28;20051;-65
2022/03/21 04:39:36;;;;;;;24.40;14.18;;;5.10;99.90;;;;;;5094133;28;20075;-65
2022/03/21 04:42:02;;;;;;;27.73;14.57;;;5.00;99.90;;;;;;5093669;28;20083;-64
2022/03/21 04:44:27;;;;;;;23.98;15.57;;;5.10;99.90;;;;;;5094035;28;20549;-64
2022/03/21 04:46:56;;;;;;;25.45;15.98;;;5.00;99.90;;;;;;5110982;28;20052;-65
2022/03/21 04:49:22;;;;;;;24.60;15.40;;;5.00;99.90;;;;;;5112202;28;20043;-63
2022/03/21 04:51:48;;;;;;;25.30;15.75;;;5.00;99.90;;;;;;5111618;28;20126;-66
2022/03/21 04:54:13;;;;;;;29.17;15.93;;;4.90;99.90;;;;;;5094079;28;20087;-64
2022/03/21 04:56:39;;;;;;;23.73;14.98;;;4.90;99.90;;;;;;5112144;28;20085;-64
2022/03/21 04:59:05;;;;;;;23.38;14.77;;;4.90;99.90;;;;;;5111475;28;20147;-64
2022/03/21 05:01:31;;;;;;;27.60;15.95;;;5.40;99.90;;;;;;5094043;28;20560;-64
2022/03/21 05:03:56;;;;;;;26.92;15.35;;;4.80;99.90;;;;;;5093600;28;20047;-64
2022/03/21 05:06:23;;;;;;;25.73;15.60;;;4.90;99.90;;;;;;5112309;28;20047;-64
2022/03/21 05:08:50;;;;;;;26.65;15.93;;;4.90;99.90;;;;;;5111820;28;20044;-64
2022/03/21 05:11:16;;;;;;;22.95;14.98;;;4.80;99.90;;;;;;5111863;28;20047;-65
2022/03/21 05:13:42;;;;;;;27.80;16.10;;;4.80;99.90;;;;;;5111836;28;20046;-68
2022/03/21 05:16:08;;;;;;;25.90;15.10;;;4.80;99.90;;;;;;5111539;28;20353;-64
2022/03/21 05:18:34;;;;;;;22.20;15.30;;;4.80;99.90;;;;;;5111863;28;20527;-64
2022/03/21 05:21:04;;;;;;;23.70;15.10;;;4.80;99.90;;;;;;5111360;28;20051;-65
2022/03/21 05:31:43;;;;;;;25.45;15.90;;;4.70;99.90;;;;;;5111867;28;20058;-63
2022/03/21 05:36:54;;;;;;;26.85;16.67;;;4.70;99.90;;;;;;5095508;28;20508;-65
2022/03/21 05:39:21;;;;;;;28.63;16.67;;;4.60;99.90;;;;;;5111483;28;20039;-64
2022/03/21 05:41:48;;;;;;;30.02;17.25;;;4.70;99.90;;;;;;5111160;28;20135;-69
2022/03/21 05:44:14;;;;;;;27.15;17.23;;;4.70;99.90;;;;;;5113901;28;20679;-65
2022/03/21 05:46:40;;;;;;;27.27;17.90;;;4.70;99.90;;;;;;5115457;28;20044;-65
2022/03/21 05:49:05;;;;;;;28.33;17.20;;;4.60;99.90;;;;;;5096972;28;20160;-64
2022/03/21 05:51:33;;;;;;;34.65;17.35;;;4.70;99.90;;;;;;5115307;28;20054;-65
2022/03/21 05:54:11;;;;;;;26.63;16.55;;;4.60;99.90;;;;;;5115036;28;20040;-66
2022/03/21 05:56:38;;;;;;;26.48;17.38;;;4.60;99.90;;;;;;5115214;28;20500;-64
2022/03/21 06:01:50;;;;;;;27.63;17.88;;;4.80;99.90;;;;;;5115099;28;20051;-69
2022/03/21 06:04:16;;;;;;;25.42;16.63;;;4.70;99.90;;;;;;5115175;28;20047;-65
2022/03/21 06:06:43;;;;;;;26.10;16.67;;;4.70;99.90;;;;;;5096555;28;20104;-65
2022/03/21 06:09:09;;;;;;;23.25;14.65;;;4.70;99.90;;;;;;5114648;28;20048;-65
2022/03/21 06:11:37;;;;;;;27.00;16.42;;;4.70;99.90;;;;;;5096996;28;20081;-65
2022/03/21 06:14:05;;;;;;;25.77;16.48;;;4.80;99.90;;;;;;5114457;28;20135;-64
2022/03/21 06:16:31;;;;;;;27.40;17.15;;;4.80;99.90;;;;;;5114850;28;20047;-64
2022/03/21 06:19:00;;;;;;;26.33;15.57;;;4.80;99.90;;;;;;5114337;28;20100;-64
2022/03/21 06:21:29;;;;;;;29.33;17.48;;;4.80;99.90;;;;;;5114688;28;20038;-64
2022/03/21 06:23:55;;;;;;;28.13;17.20;;;4.80;99.90;;;;;;5114326;28;20046;-64
2022/03/21 06:26:21;;;;;;;30.73;17.88;;;4.80;99.90;;;;;;5114566;28;20042;-65
2022/03/21 06:28:47;;;;;;;28.33;17.55;;;4.90;99.90;;;;;;5114638;28;20485;-63
2022/03/21 06:31:13;;;;;;;26.13;17.70;;;5.00;99.90;;;;;;5113749;28;20153;-64
2022/03/21 06:33:40;;;;;;;25.88;16.58;;;5.10;99.90;;;;;;5095546;28;20047;-64
2022/03/21 06:36:06;;;;;;;28.27;16.85;;;5.10;99.90;;;;;;5095319;28;20048;-64
2022/03/21 06:38:32;;;;;;;33.67;18.05;;;5.10;99.90;;;;;;5113882;28;20109;-64
2022/03/21 06:40:58;;;;;;;27.50;16.33;;;5.10;99.90;;;;;;5095838;28;20473;-63
2022/03/21 06:43:25;;;;;;;33.60;16.80;;;5.20;99.90;;;;;;5096066;28;20096;-64
2022/03/21 06:45:51;;;;;;;29.20;16.63;;;5.20;99.90;;;;;;5113864;28;20039;-64
2022/03/21 06:48:19;;;;;;;27.73;16.48;;;5.30;99.90;;;;;;5113589;28;20443;-64
2022/03/21 06:50:47;;;;;;;33.47;17.35;;;5.40;99.90;;;;;;5114052;28;20147;-64
2022/03/21 06:53:14;;;;;;;30.13;18.00;;;5.40;99.90;;;;;;5113489;28;20035;-63
2022/03/21 06:55:40;;;;;;;28.83;17.45;;;5.50;99.90;;;;;;5095399;28;20046;-64
2022/03/21 06:58:09;;;;;;;28.20;17.40;;;5.50;99.90;;;;;;5113614;28;20087;-64
2022/03/21 07:00:34;;;;;;;30.02;17.88;;;5.60;99.90;;;;;;5113992;28;20074;-64
2022/03/21 07:03:00;;;;;;;27.85;17.02;;;5.70;99.90;;;;;;5113582;28;20047;-64
2022/03/21 07:05:28;;;;;;;30.73;18.33;;;5.80;99.90;;;;;;5113884;28;20044;-65
2022/03/21 07:07:55;;;;;;;27.13;18.05;;;6.20;99.90;;;;;;5113692;28;20052;-64
2022/03/21 07:10:20;;;;;;;28.67;18.42;;;6.70;99.90;;;;;;5113149;28;20048;-64
2022/03/21 07:12:46;;;;;;;24.40;17.40;;;7.50;99.90;;;;;;5095293;28;20450;-63
2022/03/21 07:15:12;;;;;;;27.67;18.13;;;8.40;99.90;;;;;;5095196;28;20054;-63
2022/03/21 07:17:41;;;;;;;28.90;17.02;;;9.40;99.90;;;;;;5113263;28;20083;-64
2022/03/21 07:20:11;;;;;;;25.40;18.40;;;10.30;99.90;;;;;;5094774;28;20047;-63
2022/03/21 07:22:36;;;;;;;26.33;17.95;;;11.00;99.90;;;;;;5078390;28;20054;-63
2022/03/21 07:25:02;;;;;;;26.63;18.58;;;11.30;99.90;;;;;;5112991;28;20393;-67
2022/03/21 07:27:28;;;;;;;28.15;18.80;;;11.70;99.90;;;;;;5113172;28;20050;-64
2022/03/21 07:29:54;;;;;;;27.42;20.42;;;12.10;99.90;;;;;;5094729;28;20043;-64
2022/03/21 07:32:20;;;;;;;25.63;20.65;;;12.40;99.90;;;;;;5112546;28;20043;-65
2022/03/21 07:34:45;;;;;;;29.73;20.50;;;12.80;99.90;;;;;;5094867;28;20213;-64
2022/03/21 07:37:11;;;;;;;30.60;20.45;;;13.40;99.90;;;;;;5112672;28;20404;-65
2022/03/21 07:39:39;;;;;;;25.80;19.92;;;13.90;99.90;;;;;;5112945;28;20090;-64
2022/03/21 07:42:07;;;;;;;26.38;18.95;;;14.70;99.90;;;;;;5112579;28;20055;-67
2022/03/21 07:47:18;;;;;;;;;;;15.80;99.90;;;;;;5112889;28;20055;-64
2022/03/21 07:49:48;;;;;;;23.67;17.30;;;16.30;99.30;;;;;;5112802;28;20376;-64
2022/03/21 07:52:17;;;;;;;24.17;17.10;;;16.90;99.30;;;;;;5094318;28;20040;-64
2022/03/21 07:54:43;;;;;;;23.95;17.08;;;17.40;98.80;;;;;;5113109;28;20046;-68
2022/03/21 07:57:08;;;;;;;23.92;17.48;;;17.90;99.90;;;;;;5094236;28;20047;-64
2022/03/21 07:59:35;;;;;;;22.95;17.55;;;18.30;96.00;;;;;;5094366;28;20060;-64
2022/03/21 08:02:03;;;;;;;23.75;16.45;;;18.50;93.20;;;;;;5112176;28;20558;-64
2022/03/21 08:04:31;;;;;;;26.48;17.75;;;18.70;92.00;;;;;;5112280;28;20110;-65
2022/03/21 08:06:58;;;;;;;24.33;17.55;;;19.10;92.50;;;;;;5111747;28;20044;-65
2022/03/21 08:09:24;;;;;;;20.38;16.23;;;19.30;91.30;;;;;;5112330;28;20393;-65
2022/03/21 08:11:50;;;;;;;20.77;15.82;;;19.50;92.00;;;;;;5112258;28;20108;-64
2022/03/21 08:14:17;;;;;;;20.23;16.10;;;19.80;90.20;;;;;;5112029;28;20400;-65
2022/03/21 08:16:43;;;;;;;23.08;15.60;;;19.90;90.60;;;;;;5112470;28;20052;-66
2022/03/21 08:19:09;;;;;;;20.15;16.13;;;19.90;90.90;;;;;;5093651;28;20463;-70
2022/03/21 08:21:34;;;;;;;18.85;15.43;;;19.70;86.90;;;;;;5112375;28;20477;-63
2022/03/21 08:24:00;;;;;;;21.55;16.00;;;20.00;81.80;;;;;;5112106;28;20058;-64
2022/03/21 08:26:27;;;;;;;19.25;14.55;;;20.20;87.30;;;;;;5111558;28;20043;-65
2022/03/21 08:28:52;;;;;;;18.38;13.55;;;20.30;85.40;;;;;;5112060;28;20123;-64
2022/03/21 08:31:18;;;;;;;23.73;15.48;;;20.30;82.20;;;;;;5093718;28;20130;-64
2022/03/21 08:33:44;;;;;;;23.02;16.30;;;20.20;83.00;;;;;;5093627;28;20040;-63
2022/03/21 08:36:12;;;;;;;19.73;15.23;;;20.20;79.90;;;;;;5093848;28;20047;-69
2022/03/21 08:38:38;;;;;;;20.55;15.40;;;20.40;78.00;;;;;;5111957;28;20099;-66
2022/03/21 08:41:04;;;;;;;23.80;15.65;;;20.70;77.40;;;;;;5112012;28;20067;-63
2022/03/21 08:43:30;;;;;;;20.35;14.95;;;20.80;75.80;;;;;;5093284;28;20040;-63
2022/03/21 08:45:56;;;;;;;21.85;15.73;;;21.00;74.60;;;;;;5093493;28;20042;-64
2022/03/21 08:49:23;;;;;;;22.70;15.60;;;21.30;74.30;;;;;;5111416;28;20047;-64
2022/03/21 08:51:07;;;;;;;20.15;15.30;;;21.60;73.70;;;;;;5111734;28;20054;-66
2022/03/21 08:53:33;;;;;;;21.65;15.77;;;22.00;76.10;;;;;;5111545;28;20614;-63
2022/03/21 08:55:59;;;;;;;23.95;16.33;;;21.80;71.10;;;;;;5111304;28;20074;-64
2022/03/21 08:58:25;;;;;;;22.15;16.00;;;22.10;70.20;;;;;;5110836;28;20050;-64
2022/03/21 09:00:51;;;;;;;18.42;15.88;;;22.20;71.10;;;;;;5111257;28;20056;-64
2022/03/21 09:03:16;;;;;;;22.98;14.73;;;22.50;69.50;;;;;;5110839;28;20123;-63
2022/03/21 09:05:43;;;;;;;21.17;15.70;;;22.60;70.00;;;;;;5111538;28;20051;-64
2022/03/21 09:08:09;;;;;;;18.05;14.93;;;22.30;67.80;;;;;;5111520;28;20048;-63
2022/03/21 09:10:35;;;;;;;17.05;14.45;;;22.10;68.40;;;;;;5110858;28;20545;-65
2022/03/21 09:13:00;;;;;;;19.20;15.35;;;22.10;70.10;;;;;;5111319;28;20040;-64
2022/03/21 09:15:26;;;;;;;20.27;14.98;;;22.30;69.20;;;;;;5092838;28;20039;-64
2022/03/21 09:17:52;;;;;;;22.25;14.93;;;22.60;68.80;;;;;;5095111;28;20537;-64
2022/03/21 09:20:17;;;;;;;18.52;15.07;;;22.90;65.90;;;;;;5114985;28;20050;-64
2022/03/21 09:22:43;;;;;;;19.38;15.85;;;22.50;66.20;;;;;;5115492;28;20203;-64
2022/03/21 09:25:09;;;;;;;18.50;15.25;;;21.50;66.00;;;;;;5115613;28;20394;-64
2022/03/21 09:27:38;;;;;;;24.17;15.55;;;20.70;66.20;;;;;;5097092;28;20051;-64
2022/03/21 09:30:05;;;;;;;20.00;15.23;;;20.10;67.80;;;;;;5115572;28;20040;-64
2022/03/21 09:32:31;;;;;;;20.77;15.30;;;19.60;68.10;;;;;;5114922;28;20052;-64
2022/03/21 09:34:58;;;;;;;20.63;15.05;;;19.10;69.90;;;;;;5097052;28;20427;-63
2022/03/21 09:37:23;;;;;;;23.20;15.70;;;18.90;69.10;;;;;;5114604;28;20058;-66
2022/03/21 09:39:49;;;;;;;19.02;14.35;;;18.50;70.40;;;;;;5114879;28;20043;-64
2022/03/21 09:42:15;;;;;;;20.92;15.57;;;18.20;68.90;;;;;;5115072;28;20048;-63
2022/03/21 09:44:41;;;;;;;20.38;15.20;;;18.10;70.10;;;;;;5114689;28;20420;-64
2022/03/21 09:49:58;;;;;;;17.67;14.73;;;17.80;68.00;;;;;;5115381;28;20441;-65
2022/03/21 09:52:24;;;;;;;22.15;15.93;;;17.60;69.50;;;;;;5096751;28;20087;-63
2022/03/21 09:54:51;;;;;;;21.52;15.52;;;17.50;68.30;;;;;;5096873;28;20078;-62
2022/03/21 09:57:18;;;;;;;21.02;14.70;;;17.40;68.20;;;;;;5096919;28;20043;-63
2022/03/21 09:59:44;;;;;;;20.38;14.85;;;17.20;69.20;;;;;;5114271;28;20060;-66
2022/03/21 10:02:18;;;;;;;21.23;14.25;;;17.20;68.60;;;;;;5114792;28;20485;-63
2022/03/21 10:04:46;;;;;;;21.80;15.15;;;17.10;68.90;;;;;;5114664;28;20043;-65
2022/03/21 10:07:12;;;;;;;20.05;13.98;;;17.10;68.70;;;;;;5114948;28;20048;-63
2022/03/21 10:09:38;;;;;;;19.90;15.35;;;16.90;69.20;;;;;;5079646;28;20496;-64
2022/03/21 10:12:09;;;;;;;19.35;14.23;;;16.90;68.70;;;;;;5112961;28;20040;-69
2022/03/21 10:14:37;;;;;;;19.75;13.73;;;16.80;66.20;;;;;;5095506;28;20477;-64
2022/03/21 10:17:05;;;;;;;19.83;12.85;;;16.80;66.70;;;;;;5096074;28;20054;-63
2022/03/21 10:19:48;;;;;;;15.38;12.50;;;16.70;66.90;;;;;;5113728;28;20053;-63
2022/03/21 10:22:34;;;;;;;19.40;14.13;;;16.60;58.90;;;;;;5114062;28;20067;-64
2022/03/21 10:25:08;;;;;;;19.73;12.65;;;16.50;64.00;;;;;;5114187;28;20139;-65
2022/03/21 10:27:42;;;;;;;20.30;14.73;;;16.50;64.30;;;;;;5095848;28;20058;-64
2022/03/21 10:30:08;;;;;;;19.92;14.57;;;16.50;65.30;;;;;;5095379;28;20052;-65
2022/03/21 10:32:35;;;;;;;22.15;14.18;;;16.40;64.70;;;;;;5095056;28;20060;-63
2022/03/21 10:35:05;;;;;;;18.55;12.35;;;16.40;65.40;;;;;;5095997;28;20470;-64
2022/03/21 10:37:58;;;;;;;16.48;13.50;;;16.30;65.20;;;;;;5095603;28;20124;-64
2022/03/21 10:40:33;;;;;;;18.52;13.85;;;16.20;65.10;;;;;;5113612;28;20519;-65
2022/03/21 10:43:05;;;;;;;19.95;13.25;;;16.10;65.70;;;;;;5113894;28;20126;-65
2022/03/21 10:45:53;;;;;;;20.75;14.48;;;16.10;64.60;;;;;;5095260;28;20093;-65
2022/03/21 10:48:22;;;;;;;21.50;14.85;;;16.00;64.80;;;;;;5113906;28;20480;-63
2022/03/21 10:50:53;;;;;;;19.33;13.45;;;15.90;67.70;;;;;;5095062;28;20130;-64
2022/03/21 10:53:23;;;;;;;19.38;13.95;;;15.90;67.70;;;;;;5113630;28;20048;-65
2022/03/21 10:55:59;;;;;;;23.17;14.18;;;16.10;66.40;;;;;;5113259;28;20043;-63
2022/03/21 10:58:47;;;;;;;21.50;14.20;;;16.20;66.30;;;;;;5114014;28;20082;-63
2022/03/21 11:01:19;;;;;;;21.83;14.55;;;16.20;65.00;;;;;;5081748;28;20089;-64
2022/03/21 11:03:49;;;;;;;22.30;15.40;;;16.30;64.90;;;;;;5095258;28;20056;-63
2022/03/21 11:06:15;;;;;;;22.20;14.85;;;16.20;65.30;;;;;;5114037;28;20089;-63
2022/03/21 11:08:42;;;;;;;21.33;14.68;;;16.20;65.50;;;;;;5112800;28;20126;-62
2022/03/21 11:11:09;;;;;;;24.70;14.95;;;16.00;66.20;;;;;;5113430;28;20411;-62
2022/03/21 11:13:38;;;;;;;22.55;14.68;;;16.00;66.10;;;;;;5113090;28;20039;-62
2022/03/21 11:16:03;;;;;;;22.33;15.38;;;16.00;65.90;;;;;;5113693;28;20039;-62
2022/03/21 11:18:30;;;;;;;20.02;14.70;;;16.10;66.80;;;;;;5113704;28;20378;-66
2022/03/21 11:20:57;;;;;;;19.45;15.32;;;16.10;66.80;;;;;;5112666;28;20044;-63
2022/03/21 11:23:25;;;;;;;19.90;15.00;;;16.10;66.80;;;;;;5113375;28;20078;-63
2022/03/21 11:26:11;;;;;;;22.90;14.75;;;16.20;66.50;;;;;;5094360;28;20039;-63
2022/03/21 11:29:05;;;;;;;20.27;14.68;;;16.30;66.70;;;;;;5094565;28;20054;-62
2022/03/21 11:31:59;;;;;;;19.90;13.07;;;16.30;66.00;;;;;;5094596;28;20444;-63
2022/03/21 11:35:01;;;;;;;17.43;12.53;;;16.40;64.40;;;;;;5113182;28;20147;-63
2022/03/21 11:37:31;;;;;;;18.77;13.95;;;16.50;65.20;;;;;;5094422;28;20297;-63
2022/03/21 11:40:26;;;;;;;18.27;14.20;;;16.40;64.10;;;;;;5112842;28;20058;-63
2022/03/21 11:42:55;;;;;;;19.90;13.98;;;16.40;64.50;;;;;;5112392;28;20043;-63
2022/03/21 11:45:32;;;;;;;22.60;14.68;;;16.30;65.40;;;;;;5112924;28;20100;-62
2022/03/21 11:48:22;;;;;;;17.08;13.48;;;16.40;65.50;;;;;;5112542;28;20072;-63
2022/03/21 11:50:48;;;;;;;20.15;13.18;;;16.50;64.90;;;;;;5111933;28;20048;-63
2022/03/21 11:53:15;;;;;;;19.95;14.20;;;16.50;65.10;;;;;;5094413;28;20054;-63
2022/03/21 11:55:43;;;;;;;20.90;13.88;;;16.50;65.80;;;;;;5112563;28;20047;-63
2022/03/21 11:58:37;;;;;;;18.73;14.02;;;16.50;65.60;;;;;;5094168;28;20411;-64
2022/03/21 12:01:07;;;;;;;20.95;14.07;;;16.50;65.30;;;;;;5112411;28;20055;-64
2022/03/21 12:03:34;;;;;;;21.55;14.90;;;16.50;65.40;;;;;;5094177;28;20116;-63
2022/03/21 12:06:30;;;;;;;19.27;14.57;;;16.60;66.80;;;;;;5111771;28;20396;-63
2022/03/21 12:09:12;;;;;;;22.55;15.00;;;16.60;66.30;;;;;;5111860;28;20100;-62
2022/03/21 12:11:38;;;;;;;20.17;14.02;;;16.50;66.00;;;;;;5111113;28;20413;-67
2022/03/21 12:14:19;;;;;;;18.23;13.82;;;16.50;66.20;;;;;;5093731;28;20093;-63
2022/03/21 12:16:48;;;;;;;16.27;9.90;;;16.50;66.70;;;;;;5093866;28;20050;-63
2022/03/21 12:19:14;;;;;;;21.20;14.20;;;16.50;65.80;;;;;;5112185;28;20031;-63
2022/03/21 12:21:39;;;;;;;19.23;13.68;;;16.50;65.80;;;;;;5093568;28;20044;-65
2022/03/21 12:24:18;;;;;;;20.55;13.10;;;16.40;66.10;;;;;;5112359;28;20139;-61
2022/03/21 12:26:48;;;;;;;19.42;12.90;;;16.40;66.20;;;;;;5093848;28;20481;-62
2022/03/21 12:29:33;;;;;;;18.25;13.23;;;16.40;66.60;;;;;;5111844;28;20055;-65
2022/03/21 12:32:27;;;;;;;17.75;12.07;;;16.30;66.40;;;;;;5093369;28;20054;-64
2022/03/21 12:34:54;;;;;;;16.33;12.05;;;16.30;65.70;;;;;;5093710;28;20058;-63
2022/03/21 12:37:46;;;;;;;19.08;12.77;;;16.40;65.20;;;;;;5112002;28;20170;-65
2022/03/21 12:40:13;;;;;;;20.80;13.35;;;16.30;64.80;;;;;;5093550;28;20159;-65
2022/03/21 12:42:45;;;;;;;20.83;12.95;;;16.40;66.30;;;;;;5111808;28;20043;-65
2022/03/21 12:45:19;;;;;;;20.38;13.10;;;16.40;66.10;;;;;;5111795;28;20035;-63
2022/03/21 12:47:45;;;;;;;18.88;13.90;;;16.40;65.90;;;;;;5111602;28;20051;-64
2022/03/21 12:50:21;;;;;;;21.33;12.93;;;16.50;68.00;;;;;;5093643;28;20492;-62
2022/03/21 12:53:15;;;;;;;21.88;12.38;;;16.50;67.20;;;;;;5110745;28;20055;-63
2022/03/21 12:55:41;;;;;;;17.02;12.80;;;16.40;66.00;;;;;;5108474;28;20095;-62
2022/03/21 12:58:10;;;;;;;20.77;13.73;;;16.30;66.40;;;;;;5092968;28;20056;-62
2022/03/21 13:00:39;;;;;;;17.88;12.40;;;16.30;67.40;;;;;;5092951;28;20119;-62
2022/03/21 13:03:05;;;;;;;20.30;13.98;;;16.30;66.70;;;;;;5093017;28;20082;-64
2022/03/21 13:11:28;;;;;;;20.92;13.63;;;16.30;67.70;;;;;;5092916;28;20117;-64